Time;durP1;ratioP1;P1;durP2;ratioP2;P2;SDS_P1;SDS_P2;PMS_P1;PMS_P2;Temp;Humidity;BMP_temperature;BMP_pressure;BME280_temperature;BME280_humidity;BME280_pressure;Samples;Min_cycle;Max_cycle;Signal;HPM_P1;HPM_P2
2021/01/16 00:00:22;;;;;;;45.30;18.58;;;;;;;-2.46;84.44;100117.03;5076469;28;20044;-54
2021/01/16 00:03:08;;;;;;;56.83;20.13;;;;;;;-2.54;84.76;100120.16;5076153;28;20053;-55
2021/01/16 00:05:34;;;;;;;33.55;13.45;;;;;;;-2.61;84.51;100113.97;5076054;28;20045;-54
2021/01/16 00:08:13;;;;;;;33.80;13.40;;;;;;;-2.58;84.24;100117.50;5076883;28;20060;-55
2021/01/16 00:10:42;;;;;;;23.00;9.73;;;;;;;-2.63;84.24;100115.63;5075493;28;20068;-55
2021/01/16 00:13:15;;;;;;;25.55;10.45;;;;;;;-2.60;84.37;100113.13;5075458;28;20056;-55
2021/01/16 00:15:41;;;;;;;;;;;;;;;-2.66;83.62;100106.13;5076135;28;20044;-54
2021/01/16 00:18:08;;;;;;;27.15;14.00;;;;;;;-2.76;83.70;100110.88;5075975;28;20395;-55
2021/01/16 00:20:39;;;;;;;16.60;9.05;;;;;;;-2.79;84.00;100103.09;5076030;28;20139;-55
2021/01/16 00:23:05;;;;;;;24.90;9.98;;;;;;;-2.66;83.43;100112.97;5076796;28;20056;-54
2021/01/16 00:25:31;;;;;;;15.27;8.48;;;;;;;-2.69;83.34;100110.28;5082795;28;20044;-55
2021/01/16 00:27:58;;;;;;;18.98;9.45;;;;;;;-2.66;83.31;100113.84;5082554;28;20068;-55
2021/01/16 00:30:25;;;;;;;16.17;9.40;;;;;;;-2.71;83.56;100111.94;5082829;28;20056;-55
2021/01/16 00:32:51;;;;;;;26.60;12.68;;;;;;;-2.63;83.08;100118.19;5082759;28;20493;-55
2021/01/16 00:35:17;;;;;;;14.55;8.95;;;;;;;-2.67;83.11;100108.63;5082497;28;20045;-54
2021/01/16 00:37:45;;;;;;;19.35;9.35;;;;;;;-2.68;83.22;100112.91;5082789;28;20052;-55
2021/01/16 00:40:12;;;;;;;14.48;7.90;;;;;;;-2.75;83.50;100113.53;5082733;28;20055;-55
2021/01/16 00:42:42;;;;;;;19.33;10.30;;;;;;;-2.68;83.28;100114.59;5082703;28;20044;-55
2021/01/16 00:45:08;;;;;;;15.43;9.63;;;;;;;-2.74;83.00;100124.66;5098438;28;20052;-55
2021/01/16 00:47:35;;;;;;;34.45;15.52;;;;;;;-2.82;83.64;100119.28;5082644;28;20079;-55
2021/01/16 00:50:02;;;;;;;22.02;11.38;;;;;;;-2.92;84.13;100117.22;5082625;28;20052;-55
2021/01/16 00:52:29;;;;;;;19.58;11.70;;;;;;;-2.74;83.34;100116.94;5081519;28;20127;-55
2021/01/16 00:54:54;;;;;;;25.02;11.25;;;;;;;-2.74;82.88;100116.94;5081751;28;20055;-54
2021/01/16 00:57:20;;;;;;;24.33;12.82;;;;;;;-2.71;82.88;100115.34;5081729;28;20411;-55
2021/01/16 00:59:46;;;;;;;20.10;11.07;;;;;;;-2.93;83.76;100107.75;5082580;28;20052;-54
2021/01/16 01:02:12;;;;;;;31.00;14.25;;;;;;;-2.94;84.09;100116.28;5098206;28;20064;-55
2021/01/16 01:04:38;;;;;;;20.02;12.00;;;;;;;-2.93;84.14;100123.16;5082166;28;20048;-55
2021/01/16 01:07:09;;;;;;;24.38;12.75;;;;;;;-2.93;83.77;100125.72;5082508;28;20090;-55
2021/01/16 01:09:35;;;;;;;29.95;14.27;;;;;;;-2.92;83.61;100122.34;5082512;28;20117;-55
2021/01/16 01:12:01;;;;;;;23.30;11.75;;;;;;;-2.97;83.88;100123.88;5083028;28;20044;-55
2021/01/16 01:14:27;;;;;;;31.15;15.18;;;;;;;-3.05;84.44;100131.31;5082403;28;20048;-55
2021/01/16 01:16:52;;;;;;;26.77;13.70;;;;;;;-3.04;84.32;100130.47;5082413;28;20056;-55
2021/01/16 01:19:18;;;;;;;23.38;12.55;;;;;;;-3.08;84.09;100133.75;5081544;28;20429;-55
2021/01/16 01:21:44;;;;;;;23.85;13.43;;;;;;;-3.16;84.29;100130.91;5082075;28;20346;-55
2021/01/16 01:24:10;;;;;;;25.13;12.88;;;;;;;-3.11;84.15;100131.09;5082283;28;20057;-54
2021/01/16 01:26:37;;;;;;;21.67;12.45;;;;;;;-3.13;84.12;100137.84;5082318;28;20468;-54
2021/01/16 01:29:04;;;;;;;21.50;12.48;;;;;;;-3.13;84.15;100145.53;5082033;28;20063;-55
2021/01/16 01:31:30;;;;;;;26.27;12.77;;;;;;;-3.11;83.43;100137.09;5082590;28;20398;-54
2021/01/16 01:33:55;;;;;;;29.65;14.05;;;;;;;-3.14;84.05;100136.97;5081356;28;20056;-55
2021/01/16 01:36:21;;;;;;;24.27;13.60;;;;;;;-3.16;84.00;100135.16;5078039;28;20053;-54
2021/01/16 01:38:47;;;;;;;26.33;14.68;;;;;;;-3.18;84.38;100134.25;5078779;28;20063;-55
2021/01/16 01:41:13;;;;;;;21.40;12.43;;;;;;;-3.20;83.87;100135.88;5078758;28;20041;-55
2021/01/16 01:43:38;;;;;;;22.55;13.90;;;;;;;-3.15;83.67;100132.69;5078080;28;20451;-55
2021/01/16 01:46:04;;;;;;;24.20;13.73;;;;;;;-3.16;83.77;100141.16;5078470;28;20076;-54
2021/01/16 01:48:31;;;;;;;22.92;13.38;;;;;;;-3.23;84.29;100133.22;5078570;28;20056;-55
2021/01/16 01:50:59;;;;;;;26.98;13.73;;;;;;;-3.25;84.32;100145.09;5078813;28;20076;-54
2021/01/16 01:53:25;;;;;;;32.22;15.98;;;;;;;-3.18;83.76;100131.69;5078477;28;20049;-54
2021/01/16 01:55:54;;;;;;;21.77;12.30;;;;;;;-3.16;83.81;100128.34;5077886;28;20041;-54
2021/01/16 01:58:22;;;;;;;24.00;13.63;;;;;;;-3.15;83.41;100131.78;5078685;28;20053;-55
2021/01/16 02:00:49;;;;;;;26.75;15.05;;;;;;;-3.22;83.80;100130.69;5078623;28;20056;-55
2021/01/16 02:03:15;;;;;;;21.15;12.18;;;;;;;-3.19;83.45;100133.38;5078214;28;20110;-54
2021/01/16 02:05:41;;;;;;;24.35;12.88;;;;;;;-3.16;83.38;100132.59;5078165;28;20402;-54
2021/01/16 02:08:07;;;;;;;21.00;11.85;;;;;;;-3.20;83.94;100125.63;5077327;28;20072;-55
2021/01/16 02:10:33;;;;;;;20.13;11.95;;;;;;;-3.27;84.14;100131.38;5078145;28;20063;-54
2021/01/16 02:13:00;;;;;;;23.02;12.55;;;;;;;-3.12;83.55;100126.75;5078313;28;20040;-54
2021/01/16 02:15:28;;;;;;;20.80;11.85;;;;;;;-3.27;83.83;100134.81;5078057;28;20086;-54
2021/01/16 02:17:56;;;;;;;23.27;13.48;;;;;;;-3.27;83.95;100134.81;5078323;28;20044;-55
2021/01/16 02:20:27;;;;;;;22.80;11.60;;;;;;;-3.23;83.55;100128.97;5078036;28;20033;-55
2021/01/16 02:23:07;;;;;;;20.17;12.13;;;;;;;-3.23;83.64;100130.66;5094039;28;20387;-55
2021/01/16 02:25:40;;;;;;;20.08;12.05;;;;;;;-3.23;83.70;100135.78;5078183;28;20059;-55
2021/01/16 02:28:10;;;;;;;19.42;11.52;;;;;;;-3.24;83.91;100140.03;5110290;28;20052;-54
2021/01/16 02:30:38;;;;;;;21.42;12.02;;;;;;;-3.17;83.63;100129.19;5109730;28;20053;-54
2021/01/16 02:33:05;;;;;;;19.85;11.32;;;;;;;-3.17;83.55;100126.63;5110493;28;20123;-54
2021/01/16 02:35:31;;;;;;;21.00;11.00;;;;;;;-3.22;84.01;100125.56;5110233;28;20502;-54
2021/01/16 02:38:15;;;;;;;19.30;11.18;;;;;;;-3.14;83.57;100123.28;5110709;28;20399;-54
2021/01/16 02:40:46;;;;;;;21.67;13.02;;;;;;;-3.15;83.76;100132.69;5092218;28;20056;-54
2021/01/16 02:43:55;;;;;;;25.50;13.38;;;;;;;-3.16;83.92;100136.03;5077037;28;20392;-55
2021/01/16 02:46:32;;;;;;;20.95;13.25;;;;;;;-3.29;84.21;100139.84;5104063;28;20357;-55
2021/01/16 02:49:03;;;;;;;21.13;12.38;;;;;;;-3.23;84.09;100139.22;5076824;28;20048;-54
2021/01/16 02:51:36;;;;;;;25.75;14.77;;;;;;;-3.26;84.48;100135.66;5077628;28;20139;-55
2021/01/16 02:54:02;;;;;;;22.05;12.40;;;;;;;-3.31;84.66;100138.94;5076774;28;20356;-55
2021/01/16 02:56:28;;;;;;;31.50;15.48;;;;;;;-3.20;84.31;100139.31;5093495;28;20048;-54
2021/01/16 02:58:54;;;;;;;27.33;15.48;;;;;;;-3.23;84.49;100139.22;5076925;28;20128;-53
2021/01/16 03:01:20;;;;;;;27.30;15.82;;;;;;;-3.21;84.74;100131.59;5076276;28;20048;-54
2021/01/16 03:03:46;;;;;;;26.98;16.00;;;;;;;-3.20;84.10;100141.88;5077022;28;20060;-54
2021/01/16 03:06:12;;;;;;;23.20;14.98;;;;;;;-3.15;84.03;100132.69;5077256;28;20102;-56
2021/01/16 03:08:38;;;;;;;28.88;16.17;;;;;;;-3.20;84.12;100138.44;5077312;28;20036;-53
2021/01/16 03:11:04;;;;;;;31.60;16.85;;;;;;;-3.18;84.07;100129.13;5077241;28;20052;-53
2021/01/16 03:13:29;;;;;;;31.08;16.88;;;;;;;-3.23;84.48;100138.34;5076105;28;20094;-53
2021/01/16 03:15:55;;;;;;;28.35;16.83;;;;;;;-3.22;84.32;100132.38;5076293;28;20055;-53
2021/01/16 03:18:23;;;;;;;28.38;16.95;;;;;;;-3.18;84.27;100131.69;5109712;28;20045;-53
2021/01/16 03:20:48;;;;;;;27.17;17.20;;;;;;;-3.11;84.33;100133.66;5077079;28;20052;-53
2021/01/16 03:23:14;;;;;;;27.13;16.35;;;;;;;-3.23;85.36;100136.66;5077035;28;20090;-53
2021/01/16 03:25:41;;;;;;;27.90;15.60;;;;;;;-3.21;85.09;100134.16;5076901;28;20380;-53
2021/01/16 03:28:07;;;;;;;32.10;18.17;;;;;;;-3.29;85.37;100121.91;5076908;28;20048;-54
2021/01/16 03:30:33;;;;;;;33.97;19.45;;;;;;;-3.22;85.10;100133.25;5109288;28;20480;-53
2021/01/16 03:32:59;;;;;;;31.30;17.13;;;;;;;-3.30;85.19;100129.56;5076848;28;20128;-53
2021/01/16 03:35:25;;;;;;;29.58;16.50;;;;;;;-3.23;84.57;100135.78;5076805;28;20330;-54
2021/01/16 03:37:55;;;;;;;32.05;17.13;;;;;;;-3.23;83.92;100135.78;5076762;28;20055;-53
2021/01/16 03:40:20;;;;;;;31.95;17.30;;;;;;;-3.29;84.22;100134.72;5077243;28;20468;-54
2021/01/16 03:42:46;;;;;;;30.00;16.40;;;;;;;-3.28;84.32;100135.63;5076680;28;20052;-54
2021/01/16 03:45:15;;;;;;;29.73;16.23;;;;;;;-3.35;84.20;100124.28;5076327;28;20402;-54
2021/01/16 03:47:41;;;;;;;27.23;16.75;;;;;;;-3.31;84.46;100127.84;5076365;28;20047;-56
2021/01/16 03:50:07;;;;;;;28.50;16.25;;;;;;;-3.26;84.09;100133.97;5076561;28;20052;-54
2021/01/16 03:52:35;;;;;;;29.00;16.08;;;;;;;-3.19;83.61;100130.81;5108972;28;20074;-53
2021/01/16 03:55:01;;;;;;;32.47;16.70;;;;;;;-3.20;84.01;100136.75;5076538;28;20048;-53
2021/01/16 03:57:27;;;;;;;29.17;15.63;;;;;;;-3.15;83.50;100132.69;5075439;28;20456;-54
2021/01/16 03:59:56;;;;;;;32.10;15.63;;;;;;;-3.21;83.65;100131.59;5091651;28;20094;-54
2021/01/16 04:02:22;;;;;;;32.60;15.98;;;;;;;-3.25;84.12;100134.84;5076461;28;20063;-53
2021/01/16 04:04:48;;;;;;;30.00;17.00;;;;;;;-3.20;84.15;100131.63;5108784;28;20040;-53
2021/01/16 04:07:14;;;;;;;32.08;17.27;;;;;;;-3.22;84.19;100128.13;5076123;28;20360;-54
2021/01/16 04:09:40;;;;;;;27.60;16.35;;;;;;;-3.14;83.81;100123.28;5075534;28;20049;-56
2021/01/16 04:12:06;;;;;;;33.65;15.93;;;;;;;-3.04;83.54;100120.22;5075481;28;20052;-55
2021/01/16 04:14:32;;;;;;;27.95;15.68;;;;;;;-3.15;83.88;100129.22;5076292;28;20045;-56
2021/01/16 04:16:58;;;;;;;26.75;16.30;;;;;;;-3.16;83.98;100127.47;5076466;28;20087;-55
2021/01/16 04:19:24;;;;;;;28.17;16.30;;;;;;;-3.13;84.31;100122.47;5076259;28;20052;-56
2021/01/16 04:21:50;;;;;;;31.17;18.40;;;;;;;-3.06;83.97;100126.97;5076562;28;20094;-54
2021/01/16 04:24:15;;;;;;;30.20;17.05;;;;;;;-3.13;84.02;100131.03;5076143;28;20049;-55
2021/01/16 04:26:41;;;;;;;29.17;16.80;;;;;;;-2.99;84.10;100128.97;5075887;28;20399;-53
2021/01/16 04:29:07;;;;;;;25.58;15.32;;;;;;;-2.94;83.64;100117.16;5075342;28;20052;-56
2021/01/16 04:31:33;;;;;;;29.63;17.60;;;;;;;-2.94;83.82;100116.28;5076025;28;20044;-56
2021/01/16 04:33:59;;;;;;;28.00;15.68;;;;;;;-2.97;84.01;100113.63;5076115;28;20061;-56
2021/01/16 04:36:25;;;;;;;28.33;15.60;;;;;;;-2.97;83.84;100114.47;5075566;28;20094;-56
2021/01/16 04:38:51;;;;;;;25.67;14.52;;;;;;;-3.00;84.16;100111.81;5076136;28;20041;-55
2021/01/16 04:41:18;;;;;;;32.63;16.70;;;;;;;-2.90;83.74;100108.75;5076058;28;20055;-56
2021/01/16 04:43:46;;;;;;;30.55;16.10;;;;;;;-2.95;83.82;100105.16;5108149;28;20063;-56
2021/01/16 04:46:12;;;;;;;34.90;18.52;;;;;;;-3.01;84.63;100111.78;5075958;28;20083;-56
2021/01/16 04:48:37;;;;;;;28.95;17.30;;;;;;;-2.92;84.17;100107.84;5075126;28;20048;-55
2021/01/16 04:51:04;;;;;;;31.27;16.15;;;;;;;-2.89;84.13;100109.63;5091825;28;20052;-55
2021/01/16 04:53:40;;;;;;;28.13;15.73;;;;;;;-2.84;83.71;100111.50;5075610;28;20044;-56
2021/01/16 04:56:07;;;;;;;27.80;14.48;;;;;;;-2.83;83.71;100099.56;5076526;28;20051;-56
2021/01/16 04:58:34;;;;;;;31.02;15.90;;;;;;;-2.88;83.97;100104.53;5075930;28;20052;-56
2021/01/16 05:01:02;;;;;;;28.30;16.52;;;;;;;-2.90;84.12;100102.75;5075851;28;20429;-55
2021/01/16 05:03:28;;;;;;;31.73;16.67;;;;;;;-2.98;84.70;100110.19;5075446;28;20072;-56
2021/01/16 05:05:54;;;;;;;28.45;16.65;;;;;;;-2.92;84.95;100107.84;5091623;28;20437;-55
2021/01/16 05:08:20;;;;;;;29.63;16.67;;;;;;;-2.80;84.12;100109.91;5091725;28;20052;-56
2021/01/16 05:10:45;;;;;;;31.33;18.13;;;;;;;-2.79;84.11;100111.69;5078306;28;20469;-56
2021/01/16 05:13:12;;;;;;;29.85;16.95;;;;;;;-2.84;84.09;100098.69;5095282;28;20353;-55
2021/01/16 05:15:39;;;;;;;30.30;16.95;;;;;;;-2.83;84.22;100108.16;5079474;28;20041;-56
2021/01/16 05:18:10;;;;;;;31.67;18.67;;;;;;;-2.85;84.38;100101.22;5078239;28;20058;-55
2021/01/16 05:20:37;;;;;;;25.15;16.08;;;;;;;-2.80;84.34;100098.78;5079432;28;20048;-56
2021/01/16 05:23:13;;;;;;;33.85;17.20;;;;;;;-2.74;84.03;100101.56;5079651;28;20162;-55
2021/01/16 05:25:40;;;;;;;26.48;15.73;;;;;;;-2.74;84.32;100104.13;5078461;28;20127;-55
2021/01/16 05:28:06;;;;;;;31.30;16.90;;;;;;;-2.67;83.89;100112.06;5078941;28;20056;-57
2021/01/16 05:30:46;;;;;;;29.38;17.05;;;;;;;-2.73;84.07;100109.31;5079181;28;20052;-56
2021/01/16 05:33:12;;;;;;;31.05;17.73;;;;;;;-2.78;84.52;100103.16;5079215;28;20380;-55
2021/01/16 05:35:38;;;;;;;27.35;17.08;;;;;;;-2.71;84.25;100097.41;5078812;28;20048;-56
2021/01/16 05:38:03;;;;;;;30.95;17.05;;;;;;;-2.74;84.55;100105.00;5111686;28;20060;-56
2021/01/16 05:40:29;;;;;;;33.25;17.67;;;;;;;-2.71;84.35;100094.84;5078147;28;20048;-55
2021/01/16 05:42:57;;;;;;;37.53;19.35;;;;;;;-2.71;84.46;100096.53;5112216;28;20048;-56
2021/01/16 05:45:23;;;;;;;27.92;17.20;;;;;;;-2.73;84.38;100093.94;5111740;28;20136;-55
2021/01/16 05:47:48;;;;;;;35.05;18.70;;;;;;;-2.62;84.26;100092.56;5094851;28;20127;-55
2021/01/16 05:50:14;;;;;;;31.83;18.55;;;;;;;-2.67;84.47;100085.56;5077977;28;20055;-56
2021/01/16 05:52:40;;;;;;;29.17;17.13;;;;;;;-2.61;84.17;100080.63;5078564;28;20048;-56
2021/01/16 05:55:07;;;;;;;30.33;17.33;;;;;;;-2.61;84.10;100080.63;5078450;28;20440;-56
2021/01/16 05:57:33;;;;;;;30.85;17.83;;;;;;;-2.60;83.84;100074.66;5079534;28;20052;-53
2021/01/16 06:00:00;;;;;;;30.95;17.42;;;;;;;-2.65;84.43;100081.34;5078471;28;20097;-54
2021/01/16 06:02:29;;;;;;;31.20;16.60;;;;;;;-2.66;84.26;100079.63;5078123;28;20117;-53
2021/01/16 06:04:56;;;;;;;29.95;16.83;;;;;;;-2.66;84.43;100080.50;5060883;28;20123;-54
2021/01/16 06:07:22;;;;;;;32.47;19.35;;;;;;;-2.65;84.14;100076.22;5078256;28;20190;-53
2021/01/16 06:09:50;;;;;;;26.45;16.85;;;;;;;-2.79;85.02;100069.75;5077244;28;20368;-54
2021/01/16 06:12:15;;;;;;;30.45;17.83;;;;;;;-2.76;85.13;100057.94;5078507;28;20048;-53
2021/01/16 06:14:42;;;;;;;33.05;19.52;;;;;;;-2.71;84.45;100064.06;5111229;28;20044;-54
2021/01/16 06:17:10;;;;;;;27.52;16.73;;;;;;;-2.76;84.88;100075.00;5078358;28;20064;-54
2021/01/16 06:19:36;;;;;;;29.83;18.63;;;;;;;-2.73;84.93;100068.28;5077869;28;20381;-55
2021/01/16 06:22:08;;;;;;;32.35;19.00;;;;;;;-2.66;84.94;100064.22;5075365;28;20059;-54
2021/01/16 06:24:34;;;;;;;33.70;18.83;;;;;;;-2.70;84.51;100064.94;5092649;28;20048;-54
2021/01/16 06:27:00;;;;;;;44.33;22.25;;;;;;;-2.60;84.21;100066.97;5093078;28;20583;-54
2021/01/16 06:29:33;;;;;;;38.47;19.92;;;;;;;-2.64;84.03;100071.13;5077037;28;20445;-54
2021/01/16 06:32:06;;;;;;;47.90;25.13;;;;;;;-2.53;83.46;100061.22;5108949;28;20040;-54
2021/01/16 06:34:33;;;;;;;;;;;;;;;-2.76;83.84;100073.31;5078044;28;20127;-54
2021/01/16 06:37:04;;;;;;;30.42;18.73;;;;;;;-2.67;83.79;100068.47;5077121;28;19955;-54
2021/01/16 06:39:33;;;;;;;38.60;24.83;;;;;;;-2.70;83.92;100078.63;5077593;28;20049;-54
2021/01/16 06:41:59;;;;;;;29.80;18.75;;;;;;;-2.46;82.36;100077.69;5110609;28;20127;-54
2021/01/16 06:44:24;;;;;;;30.45;17.00;;;;;;;-2.69;82.74;100072.69;5093959;28;20337;-54
2021/01/16 06:46:50;;;;;;;31.23;18.30;;;;;;;-2.71;82.94;100066.63;5111083;28;20071;-54
2021/01/16 06:49:27;;;;;;;28.10;17.73;;;;;;;-2.72;82.03;100067.47;5077442;28;20044;-54
2021/01/16 06:52:00;;;;;;;58.63;29.55;;;;;;;-2.69;81.75;100072.69;5093635;28;20067;-54
2021/01/16 06:54:30;;;;;;;;;;;;;;;-2.76;81.76;100072.44;5078134;28;20072;-54
2021/01/16 06:57:09;;;;;;;27.80;20.15;;;;;;;-2.85;82.15;100073.03;5077602;28;20075;-55
2021/01/16 06:59:36;;;;;;;220.13;146.98;;;;;;;-2.80;82.17;100075.72;5077607;28;20098;-55
2021/01/16 07:02:27;;;;;;;121.95;68.38;;;;;;;-2.76;81.77;100077.56;5077046;28;20464;-54
2021/01/16 07:04:54;;;;;;;70.38;37.00;;;;;;;-2.78;81.89;100074.94;5077367;28;20056;-54
2021/01/16 07:07:51;;;;;;;43.53;16.70;;;;;;;-2.80;81.67;100073.16;5077364;28;20067;-55
2021/01/16 07:10:21;;;;;;;61.10;21.15;;;;;;;-2.73;81.94;100068.28;5076858;28;20456;-55
2021/01/16 07:12:51;;;;;;;51.47;19.80;;;;;;;-2.78;82.18;100074.09;5077560;28;20408;-54
2021/01/16 07:15:17;;;;;;;27.77;14.35;;;;;;;-2.82;82.33;100061.16;5109952;28;20083;-54
2021/01/16 07:17:44;;;;;;;1001.08;292.85;;;;;;;-2.68;82.19;100073.56;5109489;28;20052;-54
2021/01/16 07:20:10;;;;;;;1126.97;408.92;;;;;;;-2.66;82.09;100079.63;5077069;28;20048;-54
2021/01/16 07:22:38;;;;;;;1756.75;703.10;;;;;;;-2.73;82.44;100077.66;5076788;28;20101;-54
2021/01/16 07:25:05;;;;;;;397.60;160.07;;;;;;;-2.60;82.01;100077.22;5076579;28;20445;-54
2021/01/16 07:27:32;;;;;;;256.15;115.03;;;;;;;-2.64;81.96;100076.25;5076938;28;20135;-54
2021/01/16 07:29:58;;;;;;;146.57;70.15;;;;;;;-2.42;81.89;100071.81;5076068;28;20058;-54
2021/01/16 07:32:50;;;;;;;477.83;299.50;;;;;;;-2.59;82.44;100084.13;5076469;28;20135;-54
2021/01/16 07:35:17;;;;;;;68.85;42.90;;;;;;;-2.62;83.58;100079.75;5076227;28;20113;-54
2021/01/16 07:37:44;;;;;;;143.35;86.80;;;;;;;-2.69;85.04;100088.09;5076520;28;20400;-54
2021/01/16 07:40:26;;;;;;;583.67;390.58;;;;;;;-2.80;85.83;100089.41;5059224;28;20135;-54
2021/01/16 07:42:53;;;;;;;364.25;238.63;;;;;;;-2.94;87.06;100085.53;5077084;28;20052;-54
2021/01/16 07:45:29;;;;;;;819.40;526.97;;;;;;;-3.00;87.49;100086.19;5109166;28;20045;-54
2021/01/16 07:47:58;;;;;;;309.38;167.07;;;;;;;-3.00;86.62;100086.19;5077208;28;20155;-54
2021/01/16 07:50:28;;;;;;;364.83;194.90;;;;;;;-3.02;87.07;100081.81;5076925;28;20090;-54
2021/01/16 07:52:55;;;;;;;131.02;67.95;;;;;;;-3.00;86.64;100073.38;5076586;28;20076;-54
2021/01/16 07:55:21;;;;;;;358.05;241.50;;;;;;;-3.10;87.13;100077.31;5076137;28;20117;-54
2021/01/16 07:57:50;;;;;;;319.90;195.43;;;;;;;-2.97;85.51;100087.97;5075398;28;20436;-54
2021/01/16 08:00:17;;;;;;;49.55;29.20;;;;;;;-2.98;84.71;100082.00;5075643;28;20452;-54
2021/01/16 08:03:07;;;;;;;82.53;49.25;;;;;;;-3.15;85.48;100084.00;5092015;28;20052;-54
2021/01/16 08:06:21;;;;;;;160.88;126.32;;;;;;;-3.09;85.11;100073.94;5075555;28;20041;-54
2021/01/16 08:08:53;;;;;;;93.35;46.08;;;;;;;-2.98;85.42;100078.56;5093415;28;20131;-54
2021/01/16 08:11:22;;;;;;;53.78;32.47;;;;;;;-3.00;84.59;100075.94;5076668;28;20048;-54
2021/01/16 08:13:48;;;;;;;62.13;36.17;;;;;;;-3.02;83.99;100075.03;5091587;28;20142;-54
2021/01/16 08:16:14;;;;;;;156.40;117.13;;;;;;;-3.06;83.65;100076.59;5075481;28;20044;-54
2021/01/16 08:18:40;;;;;;;221.05;96.45;;;;;;;-3.01;83.24;100070.78;5075426;28;20334;-54
2021/01/16 08:21:07;;;;;;;52.75;24.30;;;;;;;-2.98;82.25;100076.88;5058409;28;20125;-54
2021/01/16 08:23:46;;;;;;;111.18;58.35;;;;;;;-3.08;83.38;100078.25;5076243;28;20086;-54
2021/01/16 08:26:12;;;;;;;87.60;52.97;;;;;;;-2.88;82.98;100080.59;5108529;28;20125;-54
2021/01/16 08:28:38;;;;;;;149.85;68.15;;;;;;;-2.84;82.78;100077.31;5075337;28;20064;-54
2021/01/16 08:31:05;;;;;;;149.75;71.22;;;;;;;-2.84;82.49;100077.31;5058798;28;20053;-54
2021/01/16 08:33:32;;;;;;;197.50;86.13;;;;;;;-2.81;83.75;100074.84;5075599;28;20357;-54
2021/01/16 08:36:04;;;;;;;43.15;26.90;;;;;;;-2.65;82.03;100077.09;5091613;28;20098;-54
2021/01/16 08:38:30;;;;;;;294.27;121.15;;;;;;;-2.53;80.54;100078.31;5077139;28;20068;-53
2021/01/16 08:41:04;;;;;;;154.88;49.28;;;;;;;-2.54;79.12;100076.56;5058261;28;20491;-54
2021/01/16 08:43:34;;;;;;;48.78;18.35;;;;;;;-2.58;79.23;100071.31;5106965;28;20127;-53
2021/01/16 08:46:07;;;;;;;55.30;23.55;;;;;;;-2.60;78.57;100075.56;5095266;28;20452;-54
2021/01/16 08:48:33;;;;;;;258.80;82.03;;;;;;;-2.67;78.31;100071.03;5080061;28;20098;-55
2021/01/16 08:50:59;;;;;;;176.60;60.80;;;;;;;-2.50;77.77;100083.53;5079971;28;20487;-54
2021/01/16 08:53:25;;;;;;;99.97;41.08;;;;;;;-2.44;77.99;100078.59;5078974;28;20472;-54
2021/01/16 08:55:51;;;;;;;130.70;47.03;;;;;;;-2.42;77.13;100076.94;5078635;28;20047;-54
2021/01/16 08:58:17;;;;;;;42.63;19.80;;;;;;;-2.38;75.74;100089.03;5079531;28;20046;-54
2021/01/16 09:00:43;;;;;;;143.77;47.03;;;;;;;-2.40;75.48;100075.31;5078646;28;20136;-54
2021/01/16 09:03:17;;;;;;;229.55;93.00;;;;;;;-2.51;75.46;100067.25;5078483;28;20063;-54
2021/01/16 09:05:44;;;;;;;53.20;27.98;;;;;;;-2.41;74.82;100081.25;5080204;28;20044;-54
2021/01/16 09:08:26;;;;;;;111.90;44.30;;;;;;;-2.56;74.33;100078.22;5062011;28;20132;-54
2021/01/16 09:10:53;;;;;;;109.43;38.83;;;;;;;-2.47;74.51;100068.22;5079921;28;20036;-54
2021/01/16 09:13:24;;;;;;;115.47;39.63;;;;;;;-2.58;74.46;100073.91;5078724;28;20087;-54
2021/01/16 09:15:50;;;;;;;195.48;54.20;;;;;;;-2.53;74.13;100078.31;5079501;28;20097;-54
2021/01/16 09:18:15;;;;;;;297.25;64.25;;;;;;;-2.60;74.84;100082.34;5078594;28;20048;-54
2021/01/16 09:20:47;;;;;;;156.95;45.92;;;;;;;-2.40;74.11;100078.75;5079475;28;20424;-54
2021/01/16 09:23:20;;;;;;;123.82;30.85;;;;;;;-2.51;74.76;100077.53;5078370;28;20057;-54
2021/01/16 09:25:46;;;;;;;114.22;40.22;;;;;;;-2.37;74.51;100086.53;5078430;28;20055;-54
2021/01/16 09:28:12;;;;;;;132.30;42.28;;;;;;;-2.37;73.41;100081.41;5111776;28;20463;-54
2021/01/16 09:30:38;;;;;;;76.55;31.27;;;;;;;-2.28;73.80;100077.38;5078895;28;20048;-54
2021/01/16 09:33:20;;;;;;;102.68;38.45;;;;;;;-2.34;73.44;100078.03;5078918;28;20041;-54
2021/01/16 09:35:46;;;;;;;116.25;43.63;;;;;;;-2.23;72.51;100071.56;5095031;28;20052;-54
2021/01/16 09:38:18;;;;;;;93.00;37.08;;;;;;;-2.21;72.44;100074.16;5079120;28;20047;-54
2021/01/16 09:40:45;;;;;;;106.20;37.63;;;;;;;-2.39;73.86;100074.47;5078891;28;20037;-54
2021/01/16 09:43:21;;;;;;;34.97;16.83;;;;;;;-2.38;73.23;100082.22;5079011;28;20052;-54
2021/01/16 09:46:00;;;;;;;158.70;57.45;;;;;;;-2.35;72.90;100074.63;5078063;28;20048;-54
2021/01/16 09:48:32;;;;;;;120.28;45.47;;;;;;;-2.46;73.36;100077.69;5078348;28;20186;-54
2021/01/16 09:50:59;;;;;;;49.00;21.20;;;;;;;-2.47;73.54;100088.75;5078641;28;20334;-55
2021/01/16 09:53:25;;;;;;;68.22;36.17;;;;;;;-2.50;72.90;100078.38;5111401;28;20044;-54
2021/01/16 09:55:53;;;;;;;44.85;20.95;;;;;;;-2.42;72.38;100082.94;5093745;28;20041;-54
2021/01/16 09:58:30;;;;;;;37.15;19.70;;;;;;;-2.43;72.46;100073.53;5078597;28;20052;-54
2021/01/16 10:01:14;;;;;;;121.50;44.17;;;;;;;-2.37;72.07;100073.72;5078738;28;20067;-54
2021/01/16 10:03:40;;;;;;;48.22;21.02;;;;;;;-2.61;72.89;100073.78;5078217;28;20365;-54
2021/01/16 10:06:07;;;;;;;58.00;29.55;;;;;;;-2.67;73.13;100067.59;5094354;28;20064;-54
2021/01/16 10:08:33;;;;;;;46.67;23.17;;;;;;;-2.58;73.03;100067.91;5078509;28;20063;-53
2021/01/16 10:11:00;;;;;;;73.90;25.83;;;;;;;-2.56;72.45;100058.56;5111145;28;20060;-54
2021/01/16 10:13:29;;;;;;;27.00;17.05;;;;;;;-2.60;73.07;100057.59;5077620;28;20182;-54
2021/01/16 10:15:57;;;;;;;33.38;16.35;;;;;;;-2.39;73.62;100056.53;5078403;28;20148;-54
2021/01/16 10:18:25;;;;;;;43.03;18.13;;;;;;;-2.30;71.83;100055.94;5077235;28;20064;-53
2021/01/16 10:21:08;;;;;;;164.07;46.58;;;;;;;-2.55;72.41;100047.47;5110653;28;20445;-54
2021/01/16 10:23:35;;;;;;;115.33;34.40;;;;;;;-2.51;72.33;100051.00;5109348;28;20052;-55
2021/01/16 10:26:06;;;;;;;23.58;17.35;;;;;;;-2.53;72.32;100038.16;5077612;28;20044;-54
2021/01/16 10:28:34;;;;;;;17.83;10.57;;;;;;;-2.54;71.77;100030.38;5079048;28;20044;-55
2021/01/16 10:31:04;;;;;;;33.70;16.70;;;;;;;-2.66;72.74;100034.31;5078427;28;20047;-55
2021/01/16 10:33:43;;;;;;;58.95;23.90;;;;;;;-2.52;72.19;100018.50;5077755;28;20052;-55
2021/01/16 10:36:14;;;;;;;44.70;19.00;;;;;;;-2.55;72.69;100009.00;5078009;28;20049;-55
2021/01/16 10:38:40;;;;;;;50.38;19.40;;;;;;;-2.44;72.96;100006.75;5077437;28;20413;-55
2021/01/16 10:41:08;;;;;;;80.13;28.92;;;;;;;-2.27;71.93;100009.84;5077935;28;20330;-55
2021/01/16 10:43:34;;;;;;;32.38;15.30;;;;;;;-2.14;71.11;100004.25;5076715;28;20072;-56
2021/01/16 10:46:09;;;;;;;59.33;23.50;;;;;;;-2.29;71.11;99991.81;5060040;28;20052;-55
2021/01/16 10:48:39;;;;;;;48.70;21.83;;;;;;;-2.20;70.24;99986.97;5077488;28;20044;-55
2021/01/16 10:51:06;;;;;;;25.65;12.40;;;;;;;-2.23;70.63;99986.88;5077686;28;20044;-56
2021/01/16 10:53:40;;;;;;;16.65;7.88;;;;;;;-2.19;70.54;99991.25;5077978;28;20048;-55
2021/01/16 10:56:13;;;;;;;19.58;10.38;;;;;;;-2.07;70.87;99982.19;5077566;28;20053;-55
2021/01/16 10:58:39;;;;;;;;;;;;;;;-2.21;70.75;99974.06;5078026;28;20048;-56
2021/01/16 11:01:05;;;;;;;54.25;23.65;;;;;;;-2.10;70.02;99982.09;5077511;28;19920;-56
2021/01/16 11:03:31;;;;;;;51.22;23.02;;;;;;;-2.04;70.28;99970.31;5076175;28;20057;-55
2021/01/16 11:06:08;;;;;;;24.88;14.05;;;;;;;-2.02;69.12;99981.47;5077061;28;20052;-56
2021/01/16 11:08:38;;;;;;;18.88;9.70;;;;;;;-2.05;69.44;99983.94;5076336;28;20330;-55
2021/01/16 11:11:23;;;;;;;19.20;9.63;;;;;;;-2.22;68.45;99974.91;5076148;28;20052;-55
2021/01/16 11:13:49;;;;;;;26.35;14.32;;;;;;;-2.30;68.88;99978.97;5077314;28;20045;-55
2021/01/16 11:16:24;;;;;;;31.33;16.55;;;;;;;-2.39;69.87;99983.00;5076881;28;20457;-55